ADDS METAR Data INFO
IDs: Format: Raw Decoded Include TAF

Data at: 2026 UTC 20 Jul 2018

KSQL 201947Z 32009KT 10SM SKC 24/15 A2992
KSQL 201850Z 29010KT 10SM SCT200 23/15 A2993
KSQL 201747Z VRB05KT 10SM FEW010 SCT200 19/17 A2993
KSQL 201647Z VRB05KT 10SM SCT200 19/15 A2992
KSQL 201547Z 00000KT 10SM SCT009 SCT130 SCT200 18/15 A2993
KSQL 201447Z 00000KT 10SM SCT009 SCT130 BKN200 17/14 A2991
KSQL 201400Z AUTO 32003KT 10SM CLR 15/13 A2991 RMK AO2
KSQL 201355Z AUTO 32003KT 10SM CLR 15/13 A2991 RMK AO2
KSQL 201347Z VRB03KT 10SM BKN011 BKN200 15/13 A2991
KSQL 201340Z AUTO 32003KT 10SM CLR 15/13 A2990 RMK AO2
KSQL 201335Z AUTO 31003KT 10SM CLR 15/13 A2990 RMK AO2
KSQL 201320Z AUTO 00000KT 10SM CLR 15/13 A2990 RMK AO2
KSQL 201315Z AUTO 00000KT 9SM CLR 15/13 A2990 RMK AO2
KSQL 201300Z AUTO 00000KT 10SM CLR 15/13 A2991 RMK AO2
KSQL 201255Z AUTO 00000KT 10SM CLR 15/13 A2991 RMK AO2
KSQL 201240Z AUTO 00000KT 10SM CLR 15/13 A2990 RMK AO2
KSQL 201235Z AUTO 00000KT 10SM CLR 15/13 A2990 RMK AO2
KSQL 201220Z AUTO 00000KT 10SM CLR 15/13 A2989 RMK AO2
KSQL 201215Z AUTO 00000KT 10SM CLR 15/13 A2990 RMK AO2
KSQL 201200Z AUTO 19003KT 10SM CLR 15/13 A2989 RMK AO2
KSQL 201155Z AUTO 20003KT 10SM CLR 15/13 A2989 RMK AO2
KSQL 201140Z AUTO 00000KT 10SM CLR 15/13 A2990 RMK AO2
KSQL 201135Z AUTO 00000KT 10SM CLR 15/13 A2989 RMK AO2
KSQL 201120Z AUTO 00000KT 10SM CLR 15/13 A2989 RMK AO2
KSQL 201115Z AUTO 00000KT 10SM CLR 15/13 A2989 RMK AO2
KSQL 201100Z AUTO 31004KT 10SM CLR 15/13 A2989 RMK AO2
KSQL 201055Z AUTO 31004KT 10SM CLR 15/13 A2989 RMK AO2
KSQL 201040Z AUTO 32003KT 10SM CLR 15/13 A2989 RMK AO2
KSQL 201035Z AUTO 32003KT 10SM CLR 15/13 A2989 RMK AO2
KSQL 201020Z AUTO 32003KT 10SM CLR 15/13 A2989 RMK AO2
KSQL 201015Z AUTO 31003KT 10SM CLR 15/13 A2989 RMK AO2
KSQL 201000Z AUTO 31004KT 10SM CLR 15/13 A2988 RMK AO2
KSQL 200955Z AUTO 31004KT 10SM CLR 15/13 A2988 RMK AO2
KSQL 200940Z AUTO 31004KT 10SM CLR 15/13 A2988 RMK AO2
KSQL 200935Z AUTO 31004KT 10SM CLR 15/13 A2988 RMK AO2
KSQL 200920Z AUTO 32003KT 10SM CLR 16/13 A2988 RMK AO2
KSQL 200915Z AUTO 00000KT 10SM CLR 16/13 A2988 RMK AO2
KSQL 200900Z AUTO 00000KT 10SM CLR 16/13 A2988 RMK AO2
KSQL 200855Z AUTO 00000KT 10SM CLR 16/13 A2988 RMK AO2
KSQL 200840Z AUTO 00000KT 10SM CLR 16/13 A2988 RMK AO2
KSQL 200835Z AUTO 00000KT 10SM CLR 16/13 A2988 RMK AO2
KSQL 200820Z AUTO 00000KT 10SM CLR 17/14 A2988 RMK AO2
KSQL 200815Z AUTO 00000KT 10SM CLR 17/14 A2988 RMK AO2
KSQL 200800Z AUTO 00000KT 10SM CLR 17/14 A2989 RMK AO2
KSQL 200755Z AUTO 00000KT 10SM CLR 17/14 A2989 RMK AO2
KSQL 200740Z AUTO 00000KT 10SM CLR 17/14 A2989 RMK AO2
KSQL 200735Z AUTO 00000KT 10SM CLR 17/14 A2989 RMK AO2
KSQL 200720Z AUTO 00000KT 10SM CLR 17/14 A2989 RMK AO2
KSQL 200715Z AUTO 00000KT 10SM CLR 17/14 A2989 RMK AO2
KSQL 200700Z AUTO 13003KT 10SM CLR 17/13 A2989 RMK AO2
KSQL 200655Z AUTO 16003KT 10SM CLR 17/13 A2989 RMK AO2
KSQL 200640Z AUTO 30003KT 10SM CLR 17/13 A2989 RMK AO2
KSQL 200635Z AUTO 00000KT 10SM CLR 17/13 A2989 RMK AO2
KSQL 200620Z AUTO 31005KT 10SM CLR 17/13 A2989 RMK AO2
KSQL 200615Z AUTO 33004KT 10SM CLR 17/13 A2989 RMK AO2
KSQL 200600Z AUTO 34004KT 10SM CLR 17/13 A2989 RMK AO2
KSQL 200555Z AUTO 34004KT 10SM CLR 17/13 A2989 RMK AO2
KSQL 200540Z AUTO 32005KT 10SM CLR 17/13 A2989 RMK AO2
KSQL 200535Z AUTO 33004KT 10SM CLR 17/13 A2989 RMK AO2
KSQL 200520Z AUTO 32004KT 10SM CLR 18/13 A2989 RMK AO2
KSQL 200515Z AUTO 32004KT 10SM CLR 18/13 A2989 RMK AO2
KSQL 200500Z AUTO 34004KT 10SM CLR 18/13 A2989 RMK AO2
KSQL 200455Z AUTO 34003KT 10SM CLR 18/13 A2988 RMK AO2
KSQL 200440Z AUTO 01005KT 10SM CLR 18/14 A2988 RMK AO2
KSQL 200435Z AUTO 01005KT 10SM CLR 18/13 A2988 RMK AO2
KSQL 200420Z AUTO 36005KT 10SM CLR 18/13 A2987 RMK AO2
KSQL 200415Z AUTO 36005KT 10SM CLR 18/13 A2987 RMK AO2
KSQL 200347Z 35006KT 10SM FEW120 19/13 A2986 RMK LAST
KSQL 200247Z 36007KT 10SM FEW120 21/13 A2986
KSQL 200147Z 35007KT 10SM FEW180 23/13 A2985
KSQL 200047Z 35009KT 10SM FEW180 24/14 A2985
KSQL 192347Z 35009KT 10SM FEW180 24/14 A2986
KSQL 192250Z 35009KT 10SM FEW180 24/14 A2988
KSQL 192147Z 34009KT 10SM FEW180 23/15 A2989
KSQL 192047Z 36007KT 10SM SCT180 23/15 A2991
KSQL 191947Z 01005KT 10SM SCT180 22/15 A2993
KSQL 191850Z 02008KT 10SM SCT200 20/16 A2994
KSQL 191750Z 02005KT 10SM SCT200 19/16 A2996
KSQL 191747Z VRB03KT 9SM BKN014 19/14 A2996
KSQL 191647Z VRB03KT 7SM OVC012 17/14 A2996
KSQL 191537Z VRB03KT 7SM OVC010 17/14 A2996
KSQL 191447Z VRB03KT 5SM OVC008 16/14 A2996
KSQL 191400Z AUTO 00000KT 7SM OVC008 16/14 A2995 RMK AO2
KSQL 191355Z AUTO 00000KT 8SM OVC008 16/14 A2995 RMK AO2
KSQL 191347Z VRB03KT 10SM OVC008 16/14 A2995
KSQL 191340Z AUTO 00000KT 7SM OVC008 16/14 A2994 RMK AO2
KSQL 191335Z AUTO 00000KT 8SM OVC008 16/14 A2994 RMK AO2
KSQL 191320Z AUTO 31003KT 10SM OVC008 15/13 A2994 RMK AO2
KSQL 191315Z AUTO 31003KT 10SM OVC008 15/13 A2994 RMK AO2
KSQL 191300Z AUTO 31005KT 10SM OVC008 15/13 A2993 RMK AO2
KSQL 191255Z AUTO 31005KT 10SM OVC008 15/13 A2993 RMK AO2
KSQL 191240Z AUTO 31005KT 10SM OVC008 15/13 A2993 RMK AO2
KSQL 191235Z AUTO 31005KT 10SM OVC008 15/13 A2993 RMK AO2
KSQL 191220Z AUTO 32006KT 10SM OVC008 15/13 A2993 RMK AO2
KSQL 191215Z AUTO 32004KT 10SM OVC008 16/13 A2993 RMK AO2
KSQL 191200Z AUTO 32003KT 10SM OVC008 16/14 A2993 RMK AO2
KSQL 191155Z AUTO 00000KT 10SM OVC008 17/14 A2993 RMK AO2
KSQL 191140Z AUTO 00000KT 10SM OVC008 16/14 A2993 RMK AO2
KSQL 191135Z AUTO 00000KT 10SM OVC008 16/14 A2993 RMK AO2
KSQL 191120Z AUTO 00000KT 10SM OVC008 16/14 A2993 RMK AO2
KSQL 191115Z AUTO 00000KT 10SM OVC008 16/14 A2993 RMK AO2
KSQL 191100Z AUTO 03003KT 10SM OVC010 16/13 A2993 RMK AO2
KSQL 191055Z AUTO 00000KT 10SM OVC010 15/13 A2993 RMK AO2
KSQL 191040Z AUTO 01003KT 10SM OVC010 15/13 A2993 RMK AO2
KSQL 191035Z AUTO 35003KT 10SM OVC010 15/13 A2993 RMK AO2
KSQL 191020Z AUTO 00000KT 10SM OVC010 15/13 A2993 RMK AO2
KSQL 191015Z AUTO 33003KT 10SM OVC010 15/13 A2993 RMK AO2
KSQL 191000Z AUTO 32003KT 10SM OVC012 15/13 A2993 RMK AO2
KSQL 190955Z AUTO 32003KT 10SM OVC012 15/13 A2993 RMK AO2
KSQL 190940Z AUTO 32003KT 10SM BKN012 15/13 A2993 RMK AO2
KSQL 190935Z AUTO 31003KT 10SM BKN014 15/13 A2993 RMK AO2
KSQL 190920Z AUTO 31003KT 10SM FEW014 15/13 A2993 RMK AO2
KSQL 190915Z AUTO 32003KT 10SM FEW014 15/13 A2993 RMK AO2
KSQL 190900Z AUTO 31003KT 10SM CLR 15/13 A2993 RMK AO2
KSQL 190855Z AUTO 32003KT 10SM CLR 15/13 A2993 RMK AO2
KSQL 190840Z AUTO 32004KT 10SM CLR 15/13 A2993 RMK AO2
KSQL 190835Z AUTO 32004KT 10SM CLR 15/13 A2993 RMK AO2